createdAt,value
2022-10-18T00:00:25.711Z,101942.84
2022-10-18T00:02:53.297Z,101948.09
2022-10-18T00:05:20.919Z,101948.09
2022-10-18T00:07:48.539Z,101939.31
2022-10-18T00:10:16.296Z,101934.09
2022-10-18T00:12:44.052Z,101933.41
2022-10-18T00:15:12.510Z,101939.75
2022-10-18T00:17:41.486Z,101942.56
2022-10-18T00:20:10.500Z,101953.47
2022-10-18T00:22:39.870Z,101945.56
2022-10-18T00:25:08.867Z,101939.34
2022-10-18T00:27:37.095Z,101937.50
2022-10-18T00:30:05.546Z,101939.34
2022-10-18T00:32:37.246Z,101942.88
2022-10-18T00:35:07.748Z,101942.88
2022-10-18T00:37:36.202Z,101946.53
2022-10-18T00:40:03.942Z,101939.34
2022-10-18T00:42:34.541Z,101940.31
2022-10-18T00:45:19.456Z,101944.72
2022-10-18T00:47:51.604Z,101943.00
2022-10-18T00:50:21.743Z,101940.31
2022-10-18T00:52:53.297Z,101930.56
2022-10-18T00:55:21.538Z,101936.78
2022-10-18T00:57:50.222Z,101933.25
2022-10-18T01:00:18.708Z,101930.56
2022-10-18T01:02:47.797Z,101931.41
2022-10-18T01:05:17.857Z,101930.56
2022-10-18T01:08:02.389Z,101935.09
2022-10-18T01:10:35.941Z,101928.19
2022-10-18T01:13:19.879Z,101930.03
2022-10-18T01:15:59.053Z,101924.78
2022-10-18T01:18:31.902Z,101916.88
2022-10-18T01:21:10.047Z,101908.13
2022-10-18T01:24:03.432Z,101920.69
2022-10-18T01:26:44.455Z,101913.66
2022-10-18T01:29:24.132Z,101906.56
2022-10-18T01:31:59.577Z,101912.91
2022-10-18T01:34:29.949Z,101910.38
2022-10-18T01:36:58.598Z,101906.00
2022-10-18T01:39:30.824Z,101898.97
2022-10-18T01:42:01.967Z,101904.59
2022-10-18T01:44:33.293Z,101899.22
2022-10-18T01:47:02.465Z,101901.22
2022-10-18T01:49:30.143Z,101902.31
2022-10-18T01:51:57.751Z,101907.00
2022-10-18T01:54:30.655Z,101898.25
2022-10-18T01:57:03.276Z,101905.44
2022-10-18T01:59:40.581Z,101910.09
2022-10-18T02:02:19.917Z,101918.13
2022-10-18T02:04:55.084Z,101908.41
2022-10-18T02:07:34.331Z,101908.53
2022-10-18T02:10:09.640Z,101898.91
2022-10-18T02:12:41.748Z,101903.41
2022-10-18T02:15:13.000Z,101899.75
2022-10-18T02:17:42.075Z,101894.53
2022-10-18T02:21:23.679Z,101884.50
2022-10-18T02:23:51.579Z,101893.69
2022-10-18T02:26:19.553Z,101895.66
2022-10-18T02:28:47.272Z,101895.78
2022-10-18T02:31:20.191Z,101894.94
2022-10-18T02:33:54.416Z,101894.94
2022-10-18T02:36:27.695Z,101895.09
2022-10-18T02:38:57.811Z,101894.25
2022-10-18T02:41:27.414Z,101901.44
2022-10-18T02:43:55.391Z,101897.06
2022-10-18T02:46:23.271Z,101896.22
2022-10-18T02:48:52.318Z,101897.34
2022-10-18T02:51:19.946Z,101899.19
2022-10-18T02:53:47.635Z,101901.84
2022-10-18T02:56:15.355Z,101900.16
2022-10-18T02:58:43.139Z,101895.94
2022-10-18T03:01:10.787Z,101897.75
2022-10-18T03:03:38.450Z,101888.84
2022-10-18T03:06:07.730Z,101895.38
2022-10-18T03:08:36.598Z,101892.81
2022-10-18T03:11:04.399Z,101896.50
2022-10-18T03:13:33.904Z,101903.66
2022-10-18T03:16:01.788Z,101894.78
2022-10-18T03:18:29.381Z,101898.47
2022-10-18T03:20:57.114Z,101902.81
2022-10-18T03:23:26.174Z,101897.59
2022-10-18T03:25:53.791Z,101896.75
2022-10-18T03:28:22.033Z,101900.28
2022-10-18T03:30:49.571Z,101901.13
2022-10-18T03:33:17.412Z,101903.81
2022-10-18T03:35:45.074Z,101900.28
2022-10-18T03:38:12.608Z,101900.28
2022-10-18T03:40:41.644Z,101898.47
2022-10-18T03:43:09.287Z,101904.66
2022-10-18T03:45:36.895Z,101901.13
2022-10-18T03:48:04.985Z,101898.31
2022-10-18T03:50:32.585Z,101894.78
2022-10-18T03:53:00.178Z,101891.25
2022-10-18T03:55:27.902Z,101890.25
2022-10-18T03:57:56.832Z,101885.78
2022-10-18T04:00:24.466Z,101890.16
2022-10-18T04:02:55.051Z,101896.34
2022-10-18T04:05:26.827Z,101894.66
2022-10-18T04:07:54.476Z,101890.16
2022-10-18T04:10:22.053Z,101886.63
2022-10-18T04:12:49.694Z,101880.41
2022-10-18T04:15:18.753Z,101876.84
2022-10-18T04:17:46.356Z,101881.38
2022-10-18T04:20:14.345Z,101871.78
2022-10-18T04:22:42.029Z,101874.63
2022-10-18T04:25:09.864Z,101869.53
2022-10-18T04:27:37.511Z,101873.19
2022-10-18T04:30:05.993Z,101875.16
2022-10-18T04:32:35.453Z,101879.81
2022-10-18T04:35:03.051Z,101886.16
2022-10-18T04:37:31.088Z,101892.50
2022-10-18T04:39:58.981Z,101898.88
2022-10-18T04:42:26.977Z,101902.66
2022-10-18T04:44:54.710Z,101901.81
2022-10-18T04:47:22.351Z,101900.97
2022-10-18T04:49:51.288Z,101902.78
2022-10-18T04:52:18.915Z,101899.28
2022-10-18T04:54:46.662Z,101901.09
2022-10-18T04:57:14.263Z,101908.16
2022-10-18T04:59:41.853Z,101904.63
2022-10-18T05:02:09.519Z,101901.09
2022-10-18T05:04:37.076Z,101902.78
2022-10-18T05:07:06.597Z,101896.75
2022-10-18T05:09:34.280Z,101902.09
2022-10-18T05:12:01.874Z,101894.75
2022-10-18T05:14:29.483Z,101898.44
2022-10-18T05:16:57.030Z,101903.09
2022-10-18T05:19:24.695Z,101896.84
2022-10-18T05:21:52.298Z,101898.84
2022-10-18T05:24:23.026Z,101911.25
2022-10-18T05:26:53.086Z,101901.38
2022-10-18T05:29:20.772Z,101898.69
2022-10-18T05:31:49.385Z,101902.34
2022-10-18T05:34:17.267Z,101898.69
2022-10-18T05:36:44.990Z,101904.03
2022-10-18T05:39:12.573Z,101898.69
2022-10-18T05:41:41.480Z,101897.00
2022-10-18T05:44:09.136Z,101901.50
2022-10-18T05:46:36.881Z,101900.66
2022-10-18T05:49:04.463Z,101897.13
2022-10-18T05:51:32.231Z,101898.97
2022-10-18T05:54:00.655Z,101890.78
2022-10-18T05:56:28.330Z,101895.31
2022-10-18T05:58:57.985Z,101895.31
2022-10-18T06:01:25.627Z,101900.66
2022-10-18T06:03:53.176Z,101907.03
2022-10-18T06:06:22.342Z,101913.22
2022-10-18T06:08:50.675Z,101919.56
2022-10-18T06:11:20.384Z,101918.72
2022-10-18T06:13:49.795Z,101917.75
2022-10-18T06:16:21.394Z,101921.41
2022-10-18T06:18:49.855Z,101925.78
2022-10-18T06:21:17.555Z,101927.47
2022-10-18T06:23:48.859Z,101933.69
2022-10-18T06:26:16.424Z,101929.91
2022-10-18T06:28:44.395Z,101933.53
2022-10-18T06:31:13.824Z,101935.25
2022-10-18T06:33:42.893Z,101931.59
2022-10-18T06:36:13.303Z,101929.59
2022-10-18T06:38:41.500Z,101937.50
2022-10-18T06:41:09.831Z,101934.81
2022-10-18T06:43:37.646Z,101932.72
2022-10-18T06:46:07.647Z,101943.31
2022-10-18T06:48:36.004Z,101939.63
2022-10-18T06:51:06.747Z,101943.16
2022-10-18T06:53:40.807Z,101949.41
2022-10-18T06:56:13.603Z,101958.28
2022-10-18T06:58:41.519Z,101959.97
2022-10-18T07:01:10.773Z,101960.69
2022-10-18T07:03:38.467Z,101965.03
2022-10-18T07:06:09.490Z,101956.00
2022-10-18T07:08:37.780Z,101966.47
2022-10-18T07:11:05.804Z,101962.81
2022-10-18T07:13:34.171Z,101957.31
2022-10-18T07:16:03.258Z,101967.91
2022-10-18T07:18:30.910Z,101975.81
2022-10-18T07:20:58.465Z,101975.66
2022-10-18T07:23:27.446Z,101973.72
2022-10-18T07:25:54.981Z,101980.78
2022-10-18T07:28:22.631Z,101984.44
2022-10-18T07:30:50.311Z,101989.66
2022-10-18T07:33:17.892Z,101995.88
2022-10-18T07:35:45.468Z,102001.22
2022-10-18T07:38:13.062Z,102001.94
2022-10-18T07:40:42.045Z,101998.25
2022-10-18T07:43:12.158Z,102002.66
2022-10-18T07:45:40.093Z,102016.78
2022-10-18T07:48:07.950Z,102024.69
2022-10-18T07:50:36.008Z,102032.56
2022-10-18T07:53:03.550Z,102034.16
2022-10-18T07:55:31.297Z,102034.00
2022-10-18T07:58:01.227Z,102035.69
2022-10-18T08:00:28.857Z,102033.03
2022-10-18T08:02:56.902Z,102028.50
2022-10-18T08:05:24.762Z,102037.28
2022-10-18T08:07:52.565Z,102036.28
2022-10-18T08:10:20.717Z,102039.84
2022-10-18T08:12:48.328Z,102039.72
2022-10-18T08:15:17.612Z,102024.47
2022-10-18T08:17:45.262Z,102020.94
2022-10-18T08:20:29.948Z,102032.38
2022-10-18T08:23:00.338Z,102042.13
2022-10-18T08:25:28.852Z,102040.16
2022-10-18T08:27:56.591Z,102048.91
2022-10-18T08:30:25.595Z,102053.56
2022-10-18T08:32:53.485Z,102055.25
2022-10-18T08:35:21.159Z,102062.31
2022-10-18T08:37:48.769Z,102056.84
2022-10-18T08:40:17.265Z,102061.91
2022-10-18T08:43:07.242Z,102064.44
2022-10-18T08:45:42.992Z,102067.28
2022-10-18T08:48:21.796Z,102061.66
2022-10-18T08:50:51.380Z,102058.22
2022-10-18T08:53:25.366Z,102062.63
2022-10-18T08:55:58.491Z,102066.03
2022-10-18T08:58:27.811Z,102064.03
2022-10-18T09:01:03.894Z,102062.34
2022-10-18T09:03:49.153Z,102071.09
2022-10-18T09:06:23.621Z,102075.50
2022-10-18T09:09:02.797Z,102074.50
2022-10-18T09:11:48.216Z,102075.91
2022-10-18T09:14:40.455Z,102072.97
2022-10-18T09:17:16.098Z,102069.88
2022-10-18T09:22:44.820Z,102079.22
2022-10-18T09:25:20.124Z,102080.91
2022-10-18T09:27:53.862Z,102087.81
2022-10-18T09:30:33.220Z,102088.53
2022-10-18T09:33:14.577Z,102084.03
2022-10-18T09:35:48.746Z,102088.53
2022-10-18T09:38:22.291Z,102089.25
2022-10-18T09:40:55.973Z,102093.47
2022-10-18T09:43:26.788Z,102087.00
2022-10-18T09:45:56.571Z,102091.22
2022-10-18T09:48:29.875Z,102093.06
2022-10-18T09:51:01.948Z,102091.81
2022-10-18T09:53:37.593Z,102093.22
2022-10-18T09:56:09.449Z,102103.97
2022-10-18T09:58:41.485Z,102112.44
2022-10-18T10:01:09.843Z,102104.81
2022-10-18T10:03:38.759Z,102104.81
2022-10-18T10:06:17.945Z,102108.19
2022-10-18T10:08:49.833Z,102114.56
2022-10-18T10:11:31.514Z,102107.06
2022-10-18T10:14:07.972Z,102110.03
2022-10-18T10:16:44.657Z,102121.91
2022-10-18T10:19:24.337Z,102114.28
2022-10-18T10:21:55.952Z,102110.75
2022-10-18T10:24:30.399Z,102117.22
2022-10-18T10:27:07.852Z,102121.59
2022-10-18T10:29:51.609Z,102125.44
2022-10-18T10:32:21.563Z,102121.75
2022-10-18T10:34:51.116Z,102115.13
2022-10-18T10:37:27.810Z,102113.84
2022-10-18T10:40:23.104Z,102128.53
2022-10-18T10:43:12.727Z,102122.75
2022-10-18T10:45:59.343Z,102109.06
2022-10-18T10:48:33.141Z,102119.38
2022-10-18T10:51:05.999Z,102119.63
2022-10-18T10:53:39.192Z,102104.25
2022-10-18T10:56:15.834Z,102103.25
2022-10-18T10:58:44.142Z,102115.53
2022-10-18T11:01:21.473Z,102110.06
2022-10-18T11:03:50.779Z,102100.84
2022-10-18T11:06:43.112Z,102104.81
2022-10-18T11:09:23.817Z,102120.94
2022-10-18T11:12:03.137Z,102114.88
2022-10-18T11:14:37.326Z,102108.09
2022-10-18T11:17:13.073Z,102099.47
2022-10-18T11:20:05.402Z,102109.22
2022-10-18T11:22:40.826Z,102119.50
2022-10-18T11:25:14.106Z,102119.50
2022-10-18T11:27:44.777Z,102114.56
2022-10-18T11:30:38.180Z,102113.88
2022-10-18T11:33:19.835Z,102108.63
2022-10-18T11:35:54.215Z,102095.91
2022-10-18T11:38:41.130Z,102103.25
2022-10-18T11:41:22.569Z,102109.19
2022-10-18T11:44:02.654Z,102106.66
2022-10-18T11:46:46.219Z,102099.44
2022-10-18T11:49:28.576Z,102098.44
2022-10-18T11:52:08.809Z,102106.22
2022-10-18T11:54:58.564Z,102110.22
2022-10-18T11:57:38.281Z,102109.38
2022-10-18T12:00:20.184Z,102105.69
2022-10-18T12:03:12.830Z,102107.09
2022-10-18T12:05:44.279Z,102101.44
2022-10-18T12:08:15.710Z,102102.69
2022-10-18T12:11:03.940Z,102101.97
2022-10-18T12:13:38.160Z,102095.63
2022-10-18T12:16:08.945Z,102091.94
2022-10-18T12:18:42.745Z,102088.09
2022-10-18T12:21:14.036Z,102084.72
2022-10-18T12:23:47.591Z,102089.09
2022-10-18T12:26:17.926Z,102097.56
2022-10-18T12:28:55.397Z,102089.34
2022-10-18T12:31:29.893Z,102097.28
2022-10-18T12:34:01.363Z,102094.59
2022-10-18T12:36:45.368Z,102085.50
2022-10-18T12:39:29.122Z,102084.66
2022-10-18T12:42:19.996Z,102090.91
2022-10-18T12:44:48.418Z,102090.03
2022-10-18T12:47:23.982Z,102083.81
2022-10-18T12:50:00.241Z,102095.31
2022-10-18T12:52:29.854Z,102090.63
2022-10-18T12:55:27.630Z,102096.28
2022-10-18T12:58:07.087Z,102094.59
2022-10-18T13:01:08.589Z,102100.97
2022-10-18T13:03:52.873Z,102095.31
2022-10-18T13:06:21.006Z,102099.69
2022-10-18T13:08:51.041Z,102108.50
2022-10-18T13:11:35.886Z,102090.78
2022-10-18T13:14:26.931Z,102091.94
2022-10-18T13:17:02.780Z,102098.16
2022-10-18T13:19:40.094Z,102082.72
2022-10-18T13:22:30.318Z,102080.03
2022-10-18T13:25:04.901Z,102077.50
2022-10-18T13:27:43.227Z,102077.34
2022-10-18T13:30:32.698Z,102079.28
2022-10-18T13:33:10.772Z,102085.97
2022-10-18T13:35:54.935Z,102083.81
2022-10-18T13:38:51.536Z,102085.81
2022-10-18T13:41:21.416Z,102080.28
2022-10-18T13:44:13.595Z,102081.97
2022-10-18T13:46:59.992Z,102081.00
2022-10-18T13:49:37.826Z,102079.44
2022-10-18T13:52:14.128Z,102082.97
2022-10-18T13:54:58.594Z,102085.50
2022-10-18T13:57:44.676Z,102089.78
2022-10-18T14:00:32.647Z,102098.97
2022-10-18T14:03:51.858Z,102096.84
2022-10-18T14:06:17.432Z,102085.41
2022-10-18T14:08:48.972Z,102090.19
2022-10-18T14:11:28.212Z,102095.44
2022-10-18T14:14:03.225Z,102087.50
2022-10-18T14:16:38.142Z,102104.06
2022-10-18T14:19:18.515Z,102100.41
2022-10-18T14:21:55.292Z,102094.03
2022-10-18T14:24:25.639Z,102092.63
2022-10-18T14:27:18.195Z,102103.22
2022-10-18T14:29:45.905Z,102106.22
2022-10-18T14:32:24.959Z,102098.31
2022-10-18T14:34:53.891Z,102096.91
2022-10-18T14:37:29.957Z,102102.28
2022-10-18T14:39:57.740Z,102100.16
2022-10-18T14:42:27.112Z,102106.53
2022-10-18T14:44:56.464Z,102110.34
2022-10-18T14:47:26.028Z,102104.81
2022-10-18T14:49:57.571Z,102112.34
2022-10-18T14:52:32.874Z,102101.72
2022-10-18T14:55:03.267Z,102105.25
2022-10-18T14:57:34.365Z,102097.47
2022-10-18T15:00:04.585Z,102104.53
2022-10-18T15:02:36.375Z,102100.47
2022-10-18T15:05:09.090Z,102099.75
2022-10-18T15:07:38.458Z,102106.97
2022-10-18T15:10:07.538Z,102117.69
2022-10-18T15:12:41.265Z,102108.75
2022-10-18T15:15:28.049Z,102113.44
2022-10-18T15:17:55.786Z,102115.41
2022-10-18T15:20:26.283Z,102117.13
2022-10-18T15:22:56.139Z,102117.38
2022-10-18T15:25:31.514Z,102117.00
2022-10-18T15:28:01.155Z,102119.94
2022-10-18T15:30:31.256Z,102111.19
2022-10-18T15:33:00.821Z,102110.47
2022-10-18T15:35:30.552Z,102116.13
2022-10-18T15:38:03.352Z,102115.53
2022-10-18T15:40:34.988Z,102115.00
2022-10-18T15:43:05.732Z,102119.78
2022-10-18T15:45:39.266Z,102115.69
2022-10-18T15:48:24.291Z,102120.66
2022-10-18T15:50:53.225Z,102114.09
2022-10-18T15:53:33.138Z,102116.09
2022-10-18T15:56:03.489Z,102115.38
2022-10-18T15:58:38.978Z,102128.09
2022-10-18T16:01:15.200Z,102128.53
2022-10-18T16:03:44.202Z,102125.41
2022-10-18T16:06:15.898Z,102124.22
2022-10-18T16:08:49.070Z,102122.97
2022-10-18T16:11:18.706Z,102127.03
2022-10-18T16:13:46.807Z,102125.59
2022-10-18T16:16:17.899Z,102125.31
2022-10-18T16:18:45.706Z,102127.38
2022-10-18T16:21:19.434Z,102126.06
2022-10-18T16:23:48.934Z,102133.66
2022-10-18T16:26:17.900Z,102137.72
2022-10-18T16:28:46.333Z,102138.25
2022-10-18T16:31:18.252Z,102133.72
2022-10-18T16:33:46.063Z,102143.69
2022-10-18T16:36:17.474Z,102144.50
2022-10-18T16:38:46.022Z,102147.59
2022-10-18T16:41:15.830Z,102148.97
2022-10-18T16:43:44.676Z,102147.53
2022-10-18T16:46:15.980Z,102152.53
2022-10-18T16:48:44.076Z,102154.78
2022-10-18T16:51:12.444Z,102148.97
2022-10-18T16:53:40.552Z,102152.16
2022-10-18T16:56:14.378Z,102159.00
2022-10-18T16:58:44.433Z,102156.97
2022-10-18T17:01:13.087Z,102154.81
2022-10-18T17:03:42.250Z,102165.31
2022-10-18T17:06:15.803Z,102165.94
2022-10-18T17:08:43.516Z,102163.84
2022-10-18T17:11:12.446Z,102172.66
2022-10-18T17:13:40.088Z,102181.28
2022-10-18T17:16:22.137Z,102187.53
2022-10-18T17:18:49.670Z,102192.63
2022-10-18T17:21:17.340Z,102195.31
2022-10-18T17:23:44.875Z,102189.97
2022-10-18T17:26:28.272Z,102194.38
2022-10-18T17:28:59.530Z,102197.03
2022-10-18T17:31:29.246Z,102211.22
2022-10-18T17:33:58.368Z,102216.34
2022-10-18T17:36:26.773Z,102218.84
2022-10-18T17:38:55.080Z,102219.53
2022-10-18T17:41:22.881Z,102222.91
2022-10-18T17:43:50.927Z,102216.53
2022-10-18T17:46:19.441Z,102217.13
2022-10-18T17:48:48.513Z,102214.16
2022-10-18T17:51:18.258Z,102212.31
2022-10-18T17:53:46.395Z,102215.78
2022-10-18T17:56:15.191Z,102218.25
2022-10-18T17:58:44.091Z,102219.91
2022-10-18T18:01:12.957Z,102216.09
2022-10-18T18:03:41.682Z,102209.63
2022-10-18T18:06:18.397Z,102232.34
2022-10-18T18:08:47.164Z,102219.81
2022-10-18T18:11:15.303Z,102214.03
2022-10-18T18:13:43.011Z,102211.91
2022-10-18T18:16:13.094Z,102213.44
2022-10-18T18:18:40.868Z,102222.78
2022-10-18T18:21:08.887Z,102221.50
2022-10-18T18:23:37.913Z,102230.88
2022-10-18T18:26:05.732Z,102233.97
2022-10-18T18:28:33.365Z,102226.63
2022-10-18T18:31:01.466Z,102228.97
2022-10-18T18:33:29.107Z,102233.84
2022-10-18T18:35:57.359Z,102231.59
2022-10-18T18:38:25.031Z,102236.63
2022-10-18T18:41:05.400Z,102240.53
2022-10-18T18:43:33.054Z,102256.16
2022-10-18T18:46:00.835Z,102253.06
2022-10-18T18:48:29.440Z,102256.13
2022-10-18T18:50:57.087Z,102253.97
2022-10-18T18:53:28.563Z,102257.06
2022-10-18T18:56:03.796Z,102259.16
2022-10-18T18:58:31.934Z,102260.50
2022-10-18T19:00:59.603Z,102262.63
2022-10-18T19:03:27.296Z,102262.16
2022-10-18T19:06:03.636Z,102257.97
2022-10-18T19:08:31.264Z,102265.50
2022-10-18T19:10:58.790Z,102263.06
2022-10-18T19:13:27.976Z,102258.09
2022-10-18T19:16:11.462Z,102267.34
2022-10-18T19:18:39.165Z,102271.25
2022-10-18T19:21:07.056Z,102264.47
2022-10-18T19:23:34.632Z,102264.66
2022-10-18T19:26:11.060Z,102263.22
2022-10-18T19:28:40.198Z,102264.38
2022-10-18T19:31:07.950Z,102264.66
2022-10-18T19:33:48.073Z,102265.81
2022-10-18T19:36:16.585Z,102268.66
2022-10-18T19:38:44.280Z,102276.91
2022-10-18T19:41:11.976Z,102272.72
2022-10-18T19:43:41.096Z,102268.47
2022-10-18T19:46:08.842Z,102264.38
2022-10-18T19:48:36.376Z,102269.88
2022-10-18T19:51:09.649Z,102275.47
2022-10-18T19:53:38.348Z,102276.59
2022-10-18T19:56:09.281Z,102282.19
2022-10-18T19:58:37.393Z,102283.31
2022-10-18T20:01:06.458Z,102281.72
2022-10-18T20:03:34.119Z,102278.38
2022-10-18T20:06:03.366Z,102286.59
2022-10-18T20:08:33.424Z,102284.16
2022-10-18T20:11:02.486Z,102278.16
2022-10-18T20:13:30.028Z,102281.00
2022-10-18T20:15:57.998Z,102273.19
2022-10-18T20:18:27.075Z,102281.38
2022-10-18T20:20:54.909Z,102271.00
2022-10-18T20:23:22.866Z,102274.72
2022-10-18T20:25:58.261Z,102271.38
2022-10-18T20:28:26.342Z,102275.06
2022-10-18T20:31:05.141Z,102271.72
2022-10-18T20:33:36.918Z,102282.59
2022-10-18T20:36:07.036Z,102283.72
2022-10-18T20:38:35.486Z,102288.38
2022-10-18T20:41:05.011Z,102289.47
2022-10-18T20:43:33.247Z,102289.72
2022-10-18T20:46:01.534Z,102294.28
2022-10-18T20:48:30.874Z,102298.03
2022-10-18T20:51:03.962Z,102288.56
2022-10-18T20:53:31.692Z,102285.91
2022-10-18T20:56:06.642Z,102290.38
2022-10-18T20:58:35.276Z,102286.16
2022-10-18T21:01:07.803Z,102291.56
2022-10-18T21:03:38.314Z,102290.03
2022-10-18T21:06:11.544Z,102284.03
2022-10-18T21:08:39.504Z,102282.56
2022-10-18T21:11:07.968Z,102293.38
2022-10-18T21:13:35.865Z,102292.75
2022-10-18T21:16:07.582Z,102290.19
2022-10-18T21:18:40.427Z,102285.16
2022-10-18T21:23:46.868Z,102286.25
2022-10-18T21:26:15.718Z,102286.44
2022-10-18T21:28:43.523Z,102296.25
2022-10-18T21:31:13.767Z,102292.84
2022-10-18T21:33:42.020Z,102293.88
2022-10-18T21:36:09.659Z,102291.28
2022-10-18T21:38:39.089Z,102294.06
2022-10-18T21:41:11.158Z,102291.53
2022-10-18T21:43:41.716Z,102289.88
2022-10-18T21:46:09.962Z,102294.31
2022-10-18T21:48:38.583Z,102294.50
2022-10-18T21:51:08.402Z,102284.91
2022-10-18T21:53:38.212Z,102275.44
2022-10-18T21:56:07.690Z,102276.34
2022-10-18T21:58:35.899Z,102274.63
2022-10-18T22:01:08.256Z,102272.06
2022-10-18T22:03:36.406Z,102267.00
2022-10-18T22:06:07.552Z,102265.41
2022-10-18T22:08:35.732Z,102257.59
2022-10-18T22:11:05.166Z,102251.53
2022-10-18T22:13:32.978Z,102254.34
2022-10-18T22:16:01.875Z,102251.88
2022-10-18T22:18:30.294Z,102248.50
2022-10-18T22:21:00.083Z,102253.91
2022-10-18T22:23:32.839Z,102254.00
2022-10-18T22:26:05.085Z,102252.34
2022-10-18T22:28:32.808Z,102246.28
2022-10-18T22:31:00.625Z,102248.16
2022-10-18T22:33:28.399Z,102250.00
2022-10-18T22:35:56.222Z,102240.44
2022-10-18T22:38:23.915Z,102247.59
2022-10-18T22:40:51.767Z,102255.63
2022-10-18T22:43:20.667Z,102257.53
2022-10-18T22:45:48.352Z,102253.22
2022-10-18T22:48:15.963Z,102246.31
2022-10-18T22:50:43.586Z,102246.41
2022-10-18T22:53:11.357Z,102246.53
2022-10-18T22:55:38.966Z,102249.28
2022-10-18T22:58:06.549Z,102255.50
2022-10-18T23:00:35.665Z,102258.25
2022-10-18T23:03:03.613Z,102258.41
2022-10-18T23:05:31.335Z,102257.63
2022-10-18T23:07:59.428Z,102260.41
2022-10-18T23:10:27.066Z,102259.66
2022-10-18T23:12:54.700Z,102258.84
2022-10-18T23:15:22.343Z,102259.78
2022-10-18T23:17:54.480Z,102250.22
2022-10-18T23:20:22.008Z,102246.88
2022-10-18T23:22:49.610Z,102246.09
2022-10-18T23:25:17.511Z,102253.28
2022-10-18T23:27:45.307Z,102255.13
2022-10-18T23:30:13.045Z,102252.66
2022-10-18T23:32:40.687Z,102258.00
2022-10-18T23:35:10.112Z,102261.69
2022-10-18T23:37:37.895Z,102265.34
2022-10-18T23:40:06.340Z,102264.56
2022-10-18T23:42:33.941Z,102262.06
2022-10-18T23:45:01.572Z,102263.91
2022-10-18T23:47:29.557Z,102256.91
2022-10-18T23:49:58.764Z,102255.28
2022-10-18T23:52:27.844Z,102254.50
2022-10-18T23:54:55.466Z,102259.09
2022-10-18T23:57:23.088Z,102259.19
2022-10-18T23:59:50.762Z,102264.63
